createdAt,value
2022-09-23T01:13:41.107Z,3.80
2022-09-23T01:15:19.220Z,3.72
2022-09-23T01:16:57.311Z,3.95
2022-09-23T01:18:39.023Z,3.70
2022-09-23T01:20:29.000Z,3.58
2022-09-23T01:22:07.055Z,3.83
2022-09-23T01:24:20.920Z,3.63
2022-09-23T01:26:00.307Z,3.63
2022-09-23T01:27:41.574Z,3.50
2022-09-23T01:29:51.042Z,3.40
2022-09-23T01:31:41.189Z,3.75
2022-09-23T01:33:21.160Z,3.35
2022-09-23T01:35:13.340Z,3.35
2022-09-23T01:37:08.325Z,3.53
2022-09-23T01:38:45.305Z,3.30
2022-09-23T01:40:18.397Z,3.53
2022-09-23T01:43:47.260Z,3.40
2022-09-23T01:45:27.864Z,3.65
2022-09-23T01:47:11.198Z,3.00
2022-09-23T01:48:47.718Z,3.35
2022-09-23T01:50:41.827Z,3.45
2022-09-23T01:52:33.265Z,3.45
2022-09-23T01:54:12.003Z,3.67
2022-09-23T01:55:51.088Z,3.28
2022-09-23T01:57:39.567Z,3.35
2022-09-23T01:59:26.668Z,3.97
2022-09-23T02:01:01.996Z,3.15
2022-09-23T02:02:37.009Z,3.60
2022-09-23T02:04:13.748Z,3.22
2022-09-23T02:05:51.203Z,3.28
2022-09-23T02:07:59.675Z,3.38
2022-09-23T02:09:41.209Z,3.35
2022-09-23T02:11:15.864Z,3.30
2022-09-23T02:12:50.243Z,3.53
2022-09-23T02:14:23.487Z,3.58
2022-09-23T02:15:58.772Z,3.75
2022-09-23T02:17:37.586Z,3.10
2022-09-23T02:19:17.063Z,3.10
2022-09-23T02:20:51.708Z,3.70
2022-09-23T02:22:30.462Z,3.38
2022-09-23T02:24:15.407Z,3.80
2022-09-23T02:25:59.602Z,3.67
2022-09-23T02:27:40.179Z,3.50
2022-09-23T02:29:20.871Z,3.42
2022-09-23T02:31:17.469Z,3.42
2022-09-23T02:32:53.007Z,3.28
2022-09-23T02:34:35.723Z,3.13
2022-09-23T02:36:13.645Z,3.38
2022-09-23T02:38:07.325Z,3.35
2022-09-23T02:40:03.333Z,3.35
2022-09-23T02:42:14.500Z,3.10
2022-09-23T02:43:59.928Z,3.20
2022-09-23T02:45:32.274Z,4.15
2022-09-23T02:47:04.312Z,3.72
2022-09-23T02:48:42.618Z,3.65
2022-09-23T02:50:14.708Z,2.92
2022-09-23T02:51:47.069Z,3.20
2022-09-23T02:53:19.130Z,3.13
2022-09-23T02:54:52.442Z,3.28
2022-09-23T02:56:24.818Z,2.92
2022-09-23T02:57:57.146Z,2.97
2022-09-23T02:59:29.804Z,3.50
2022-09-23T03:01:22.975Z,3.03
2022-09-23T03:03:20.065Z,3.25
2022-09-23T03:04:58.903Z,3.30
2022-09-23T03:06:58.071Z,3.17
2022-09-23T03:08:44.472Z,3.10
2022-09-23T03:10:38.385Z,3.35
2022-09-23T03:12:16.449Z,2.90
2022-09-23T03:13:57.028Z,3.60
2022-09-23T03:15:52.060Z,3.00
2022-09-23T03:17:35.400Z,3.33
2022-09-23T03:19:41.773Z,3.13
2022-09-23T03:21:20.575Z,3.00
2022-09-23T03:22:56.847Z,3.20
2022-09-23T03:24:31.780Z,3.25
2022-09-23T03:26:31.732Z,3.55
2022-09-23T03:28:04.425Z,3.28
2022-09-23T03:29:37.301Z,3.15
2022-09-23T03:31:10.844Z,3.13
2022-09-23T03:34:23.214Z,3.40
2022-09-23T03:36:18.449Z,3.17
2022-09-23T03:37:57.271Z,3.33
2022-09-23T03:39:37.395Z,3.00
2022-09-23T03:41:12.347Z,3.30
2022-09-23T03:42:44.498Z,3.22
2022-09-23T03:44:17.715Z,2.92
2022-09-23T03:45:54.084Z,3.25
2022-09-23T03:47:27.749Z,3.30
2022-09-23T03:49:29.334Z,3.20
2022-09-23T03:51:18.378Z,3.10
2022-09-23T03:52:50.992Z,3.28
2022-09-23T03:54:23.254Z,3.27
2022-09-23T03:55:55.391Z,2.83
2022-09-23T03:57:27.477Z,3.15
2022-09-23T03:58:59.548Z,3.38
2022-09-23T04:00:31.618Z,2.95
2022-09-23T04:02:04.881Z,3.22
2022-09-23T04:03:36.894Z,3.45
2022-09-23T04:05:12.442Z,2.97
2022-09-23T04:06:44.708Z,2.72
2022-09-23T04:08:16.779Z,3.50
2022-09-23T04:09:48.774Z,2.78
2022-09-23T04:11:20.783Z,3.20
2022-09-23T04:12:52.822Z,2.80
2022-09-23T04:14:24.900Z,3.13
2022-09-23T04:15:56.940Z,2.58
2022-09-23T04:17:29.263Z,3.17
2022-09-23T04:19:01.375Z,3.05
2022-09-23T04:20:33.401Z,2.70
2022-09-23T04:22:05.929Z,3.15
2022-09-23T04:23:38.029Z,3.97
2022-09-23T04:25:10.758Z,3.58
2022-09-23T04:26:43.376Z,3.20
2022-09-23T04:28:15.791Z,3.37
2022-09-23T04:29:47.820Z,3.35
2022-09-23T04:31:20.055Z,3.15
2022-09-23T04:32:53.541Z,2.90
2022-09-23T04:35:57.624Z,3.75
2022-09-23T04:37:29.916Z,3.45
2022-09-23T04:39:02.200Z,3.47
2022-09-23T04:40:34.607Z,3.10
2022-09-23T04:42:07.567Z,3.50
2022-09-23T04:43:39.967Z,3.13
2022-09-23T04:45:11.975Z,3.20
2022-09-23T04:46:48.436Z,2.92
2022-09-23T04:48:20.495Z,3.47
2022-09-23T04:49:55.575Z,3.08
2022-09-23T04:51:31.416Z,3.42
2022-09-23T04:53:04.269Z,3.50
2022-09-23T04:54:37.119Z,3.88
2022-09-23T04:56:13.259Z,3.67
2022-09-23T04:57:45.333Z,3.95
2022-09-23T04:59:17.439Z,3.80
2022-09-23T05:00:49.626Z,3.65
2022-09-23T05:02:22.047Z,3.97
2022-09-23T05:03:56.673Z,3.92
2022-09-23T05:05:29.771Z,3.30
2022-09-23T05:07:03.432Z,3.50
2022-09-23T05:08:36.212Z,3.35
2022-09-23T05:10:08.617Z,3.33
2022-09-23T05:11:40.725Z,3.40
2022-09-23T05:13:12.803Z,3.50
2022-09-23T05:14:44.799Z,4.28
2022-09-23T05:16:17.276Z,3.55
2022-09-23T05:17:49.643Z,4.10
2022-09-23T05:19:23.993Z,3.92
2022-09-23T05:20:56.238Z,3.63
2022-09-23T05:22:30.291Z,3.40
2022-09-23T05:24:02.857Z,3.83
2022-09-23T05:25:38.323Z,4.00
2022-09-23T05:27:10.534Z,4.13
2022-09-23T05:28:42.627Z,3.97
2022-09-23T05:30:14.788Z,3.92
2022-09-23T05:31:46.953Z,4.25
2022-09-23T05:33:19.323Z,4.18
2022-09-23T05:34:51.383Z,5.07
2022-09-23T05:36:24.266Z,5.40
2022-09-23T05:37:56.707Z,5.78
2022-09-23T05:39:29.900Z,5.38
2022-09-23T05:41:11.428Z,5.53
2022-09-23T05:42:43.834Z,5.78
2022-09-23T05:44:16.230Z,5.25
2022-09-23T05:45:48.519Z,5.30
2022-09-23T05:47:20.916Z,5.13
2022-09-23T05:48:53.130Z,5.00
2022-09-23T05:50:25.199Z,4.68
2022-09-23T05:51:57.224Z,4.15
2022-09-23T05:53:30.381Z,4.50
2022-09-23T05:55:02.985Z,4.85
2022-09-23T05:56:35.474Z,4.07
2022-09-23T05:58:07.520Z,4.32
2022-09-23T05:59:40.089Z,4.00
2022-09-23T06:01:14.607Z,4.40
2022-09-23T06:02:49.346Z,4.10
2022-09-23T06:04:21.513Z,3.88
2022-09-23T06:05:54.486Z,3.97
2022-09-23T06:07:26.901Z,3.72
2022-09-23T06:08:59.759Z,3.67
2022-09-23T06:10:32.084Z,4.07
2022-09-23T06:12:05.182Z,3.90
2022-09-23T06:13:38.506Z,3.85
2022-09-23T06:15:11.168Z,3.90
2022-09-23T06:16:43.466Z,3.75
2022-09-23T06:18:15.433Z,3.70
2022-09-23T06:19:47.437Z,4.05
2022-09-23T06:21:19.881Z,4.22
2022-09-23T06:22:55.293Z,3.85
2022-09-23T06:24:31.363Z,3.40
2022-09-23T06:26:05.751Z,3.72
2022-09-23T06:27:37.753Z,3.95
2022-09-23T06:29:14.861Z,3.15
2022-09-23T06:30:47.651Z,3.20
2022-09-23T06:32:20.351Z,3.63
2022-09-23T06:34:01.558Z,3.28
2022-09-23T06:35:36.838Z,3.97
2022-09-23T06:37:17.313Z,3.80
2022-09-23T06:38:50.667Z,4.03
2022-09-23T06:40:23.137Z,5.40
2022-09-23T06:41:55.596Z,5.47
2022-09-23T06:43:28.113Z,6.60
2022-09-23T06:45:00.585Z,4.95
2022-09-23T06:46:32.787Z,6.15
2022-09-23T06:48:06.511Z,4.70
2022-09-23T06:49:38.938Z,5.05
2022-09-23T06:51:19.319Z,4.53
2022-09-23T06:52:56.484Z,4.88
2022-09-23T06:54:29.368Z,4.68
2022-09-23T06:56:11.727Z,4.82
2022-09-23T06:57:43.789Z,4.30
2022-09-23T06:59:17.354Z,5.70
2022-09-23T07:00:49.494Z,5.85
2022-09-23T07:02:21.810Z,6.35
2022-09-23T07:03:54.568Z,5.97
2022-09-23T07:05:26.839Z,5.55
2022-09-23T07:06:59.153Z,5.55
2022-09-23T07:08:31.831Z,5.40
2022-09-23T07:10:09.255Z,4.95
2022-09-23T07:11:41.589Z,5.50
2022-09-23T07:13:16.303Z,5.13
2022-09-23T07:14:48.930Z,4.93
2022-09-23T07:16:21.709Z,5.53
2022-09-23T07:17:53.895Z,4.75
2022-09-23T07:19:26.508Z,4.38
2022-09-23T07:21:06.851Z,4.85
2022-09-23T07:22:39.445Z,4.53
2022-09-23T07:24:11.678Z,5.18
2022-09-23T07:25:44.397Z,4.53
2022-09-23T07:27:19.920Z,6.43
2022-09-23T07:28:57.006Z,14.80
2022-09-23T07:30:29.094Z,7.63
2022-09-23T07:32:11.849Z,7.35
2022-09-23T07:33:45.777Z,3.80
2022-09-23T07:35:18.018Z,3.00
2022-09-23T07:36:50.670Z,3.30
2022-09-23T07:38:26.523Z,4.97
2022-09-23T07:39:58.867Z,5.25
2022-09-23T07:41:32.504Z,3.08
2022-09-23T07:43:05.828Z,3.45
2022-09-23T07:44:38.091Z,3.35
2022-09-23T07:46:14.580Z,3.33
2022-09-23T07:47:46.848Z,2.28
2022-09-23T07:49:19.155Z,2.80
2022-09-23T07:50:51.372Z,2.88
2022-09-23T07:52:23.605Z,2.70
2022-09-23T07:53:56.116Z,2.40
2022-09-23T07:55:28.179Z,2.60
2022-09-23T07:57:00.786Z,2.50
2022-09-23T07:58:34.330Z,2.40
2022-09-23T08:00:07.066Z,2.30
2022-09-23T08:01:42.038Z,3.33
2022-09-23T08:03:15.446Z,2.95
2022-09-23T08:06:19.770Z,2.90
2022-09-23T08:07:52.493Z,3.13
2022-09-23T08:09:28.283Z,3.10
2022-09-23T08:11:08.869Z,2.63
2022-09-23T08:12:41.472Z,2.17
2022-09-23T08:14:14.527Z,2.22
2022-09-23T08:15:53.286Z,2.80
2022-09-23T08:17:27.820Z,3.13
2022-09-23T08:18:59.960Z,2.67
2022-09-23T08:20:48.253Z,2.90
2022-09-23T08:22:21.122Z,3.47
2022-09-23T08:23:53.350Z,2.63
2022-09-23T08:25:26.060Z,2.63
2022-09-23T08:26:58.392Z,2.42
2022-09-23T08:28:31.552Z,2.30
2022-09-23T08:30:04.087Z,2.30
2022-09-23T08:31:36.745Z,2.50
2022-09-23T08:33:09.057Z,2.15
2022-09-23T08:34:42.027Z,2.10
2022-09-23T08:36:14.485Z,2.15
2022-09-23T08:37:46.829Z,2.00
2022-09-23T08:39:20.650Z,1.90
2022-09-23T08:40:53.235Z,2.10
2022-09-23T08:42:32.947Z,2.58
2022-09-23T08:44:13.433Z,3.45
2022-09-23T08:45:46.439Z,2.50
2022-09-23T08:47:54.014Z,2.10
2022-09-23T08:49:33.840Z,2.10
2022-09-23T08:51:08.380Z,1.90
2022-09-23T08:52:51.054Z,2.63
2022-09-23T08:54:25.110Z,2.58
2022-09-23T08:55:59.742Z,2.42
2022-09-23T08:58:25.055Z,3.10
2022-09-23T08:59:58.394Z,2.67
2022-09-23T09:01:48.227Z,1.85
2022-09-23T09:03:24.245Z,2.13
2022-09-23T09:05:04.077Z,2.00
2022-09-23T09:06:53.072Z,2.05
2022-09-23T09:08:31.824Z,1.73
2022-09-23T09:10:23.382Z,2.25
2022-09-23T09:12:04.352Z,1.80
2022-09-23T09:13:44.324Z,1.83
2022-09-23T09:15:27.867Z,2.10
2022-09-23T09:17:08.764Z,2.20
2022-09-23T09:18:51.425Z,2.10
2022-09-23T09:20:55.525Z,2.05
2022-09-23T09:22:49.564Z,1.80
2022-09-23T09:24:40.758Z,2.00
2022-09-23T09:26:18.917Z,1.90
2022-09-23T09:27:52.429Z,1.70
2022-09-23T09:29:35.735Z,2.15
2022-09-23T09:33:04.835Z,2.17
2022-09-23T09:34:56.595Z,2.28
2022-09-23T09:36:42.943Z,2.22
2022-09-23T09:38:15.866Z,1.90
2022-09-23T09:39:48.171Z,2.33
2022-09-23T09:41:25.055Z,2.10
2022-09-23T09:42:57.438Z,1.90
2022-09-23T09:44:50.367Z,1.90
2022-09-23T09:46:50.359Z,1.77
2022-09-23T09:48:29.792Z,1.95
2022-09-23T09:50:09.310Z,1.65
2022-09-23T09:51:43.075Z,2.00
2022-09-23T09:53:26.371Z,1.77
2022-09-23T09:55:13.574Z,1.73
2022-09-23T09:58:18.271Z,1.80
2022-09-23T09:59:50.349Z,1.77
2022-09-23T10:01:29.620Z,1.85
2022-09-23T10:03:19.912Z,1.80
2022-09-23T10:05:01.943Z,2.10
2022-09-23T10:06:36.117Z,1.90
2022-09-23T10:08:27.327Z,1.98
2022-09-23T10:10:22.447Z,1.90
2022-09-23T10:14:03.227Z,1.90
2022-09-23T10:15:45.026Z,1.77
2022-09-23T10:17:28.348Z,1.98
2022-09-23T10:19:01.967Z,1.70
2022-09-23T10:20:38.395Z,1.80
2022-09-23T10:22:26.733Z,1.85
2022-09-23T10:23:59.020Z,2.13
2022-09-23T10:25:31.466Z,1.90
2022-09-23T10:27:12.483Z,1.80
2022-09-23T10:28:56.081Z,1.70
2022-09-23T10:30:29.301Z,2.00
2022-09-23T10:32:36.699Z,2.33
2022-09-23T10:34:31.981Z,2.10
2022-09-23T10:36:11.740Z,2.00
2022-09-23T10:37:50.001Z,1.70
2022-09-23T10:39:40.489Z,1.80
2022-09-23T10:41:44.729Z,1.75
2022-09-23T10:44:07.496Z,1.60
2022-09-23T10:45:59.398Z,1.90
2022-09-23T10:47:37.067Z,1.67
2022-09-23T10:49:46.690Z,1.70
2022-09-23T10:51:51.776Z,1.90
2022-09-23T10:53:42.524Z,2.10
2022-09-23T10:55:34.446Z,1.67
2022-09-23T10:57:42.179Z,2.30
2022-09-23T10:59:51.248Z,2.40
2022-09-23T11:01:41.628Z,1.70
2022-09-23T11:03:19.805Z,1.80
2022-09-23T11:05:14.908Z,2.78
2022-09-23T11:07:14.584Z,2.28
2022-09-23T11:08:53.360Z,2.30
2022-09-23T11:10:48.977Z,2.38
2022-09-23T11:12:31.595Z,2.08
2022-09-23T11:14:16.364Z,2.10
2022-09-23T11:16:07.124Z,2.20
2022-09-23T11:18:03.554Z,1.80
2022-09-23T11:19:54.386Z,1.98
2022-09-23T11:21:40.269Z,1.92
2022-09-23T11:23:33.228Z,1.90
2022-09-23T11:25:21.585Z,3.55
2022-09-23T11:27:12.087Z,1.95
2022-09-23T11:29:14.728Z,1.85
2022-09-23T11:30:49.994Z,2.10
2022-09-23T11:32:51.652Z,2.15
2022-09-23T11:34:35.761Z,2.00
2022-09-23T11:38:07.610Z,1.92
2022-09-23T11:40:01.557Z,2.15
2022-09-23T11:41:36.825Z,1.80
2022-09-23T11:43:35.605Z,1.90
2022-09-23T11:45:19.487Z,2.08
2022-09-23T11:48:41.762Z,1.77
2022-09-23T11:50:27.894Z,1.92
2022-09-23T11:52:24.303Z,1.63
2022-09-23T11:54:02.461Z,1.63
2022-09-23T11:55:54.733Z,2.40
2022-09-23T11:57:47.727Z,2.40
2022-09-23T11:59:41.160Z,1.70
2022-09-23T12:01:37.353Z,2.38
2022-09-23T12:03:57.203Z,1.90
2022-09-23T12:05:40.370Z,2.92
2022-09-23T12:07:17.511Z,5.30
2022-09-23T12:08:57.962Z,3.30
2022-09-23T12:12:49.412Z,3.65
2022-09-23T12:14:39.978Z,2.65
2022-09-23T12:16:51.063Z,2.92
2022-09-23T12:18:44.131Z,2.10
2022-09-23T12:20:34.560Z,2.00
2022-09-23T12:22:12.581Z,2.10
2022-09-23T12:23:44.946Z,1.98
2022-09-23T12:25:27.205Z,1.80
2022-09-23T12:27:02.519Z,1.90
2022-09-23T12:28:39.151Z,2.10
2022-09-23T12:30:20.753Z,2.22
2022-09-23T12:31:53.427Z,2.03
2022-09-23T12:33:30.662Z,1.63
2022-09-23T12:35:03.201Z,2.00
2022-09-23T12:36:36.759Z,1.75
2022-09-23T12:38:33.957Z,1.83
2022-09-23T12:40:19.567Z,2.38
2022-09-23T12:41:58.795Z,2.55
2022-09-23T12:43:35.927Z,2.20
2022-09-23T12:45:44.431Z,1.50
2022-09-23T12:47:25.489Z,1.55
2022-09-23T12:49:02.792Z,2.10
2022-09-23T12:50:53.234Z,1.92
2022-09-23T12:52:33.927Z,1.83
2022-09-23T12:54:06.224Z,2.20
2022-09-23T12:55:41.962Z,1.75
2022-09-23T12:57:35.387Z,1.77
2022-09-23T12:59:16.828Z,1.57
2022-09-23T13:01:19.952Z,1.80
2022-09-23T13:03:18.867Z,2.15
2022-09-23T13:05:22.801Z,1.88
2022-09-23T13:07:17.501Z,1.80
2022-09-23T13:08:50.306Z,1.90
2022-09-23T13:10:33.244Z,2.08
2022-09-23T13:12:09.385Z,1.75
2022-09-23T13:13:44.007Z,1.90
2022-09-23T13:15:39.083Z,2.08
2022-09-23T13:17:37.656Z,2.22
2022-09-23T13:19:28.457Z,1.80
2022-09-23T13:23:04.660Z,1.77
2022-09-23T13:24:42.694Z,1.80
2022-09-23T13:26:15.764Z,2.30
2022-09-23T13:27:51.290Z,1.80
2022-09-23T13:30:05.109Z,1.92
2022-09-23T13:31:38.203Z,1.77
2022-09-23T13:33:17.589Z,1.92
2022-09-23T13:35:17.519Z,1.73
2022-09-23T13:36:50.117Z,1.80
2022-09-23T13:38:30.180Z,1.63
2022-09-23T13:40:09.824Z,1.52
2022-09-23T13:41:44.023Z,1.70
2022-09-23T13:43:43.538Z,1.70
2022-09-23T13:45:18.496Z,1.77
2022-09-23T13:46:58.571Z,1.90
2022-09-23T13:48:31.041Z,2.00
2022-09-23T13:51:36.565Z,1.90
2022-09-23T13:53:11.809Z,2.00
2022-09-23T13:54:49.780Z,1.58
2022-09-23T13:56:23.360Z,2.00
2022-09-23T13:58:21.844Z,1.67
2022-09-23T13:59:54.172Z,1.88
2022-09-23T14:01:34.486Z,1.90
2022-09-23T14:03:31.247Z,1.80
2022-09-23T14:05:25.183Z,1.80
2022-09-23T14:06:57.688Z,2.00
2022-09-23T14:08:30.757Z,2.00
2022-09-23T14:10:06.039Z,1.75
2022-09-23T14:11:38.250Z,2.00
2022-09-23T14:13:34.196Z,2.22
2022-09-23T14:15:07.445Z,2.03
2022-09-23T14:16:41.435Z,1.98
2022-09-23T14:18:19.636Z,1.90
2022-09-23T14:19:52.294Z,1.80
2022-09-23T14:21:39.890Z,1.85
2022-09-23T14:23:15.128Z,1.65
2022-09-23T14:24:47.443Z,1.73
2022-09-23T14:26:20.195Z,1.85
2022-09-23T14:27:52.523Z,1.70
2022-09-23T14:29:27.373Z,1.90
2022-09-23T14:30:59.951Z,1.80
2022-09-23T14:32:33.044Z,1.90
2022-09-23T14:34:05.527Z,1.50
2022-09-23T14:35:43.487Z,1.70
2022-09-23T14:37:42.928Z,1.90
2022-09-23T14:39:16.594Z,2.08
2022-09-23T14:40:54.124Z,1.90
2022-09-23T14:42:28.284Z,1.90
2022-09-23T14:44:02.082Z,2.20
2022-09-23T14:45:36.807Z,1.77
2022-09-23T14:47:14.837Z,2.17
2022-09-23T14:49:13.368Z,2.20
2022-09-23T14:51:02.484Z,2.72
2022-09-23T14:52:35.327Z,5.22
2022-09-23T14:54:32.820Z,2.50
2022-09-23T14:56:08.139Z,2.10
2022-09-23T14:57:40.736Z,2.50
2022-09-23T14:59:38.865Z,2.60
2022-09-23T15:01:33.494Z,2.50
2022-09-23T15:03:21.584Z,3.33
2022-09-23T15:05:09.119Z,4.03
2022-09-23T15:06:47.349Z,3.75
2022-09-23T15:08:22.633Z,3.33
2022-09-23T15:09:55.406Z,2.40
2022-09-23T15:11:30.859Z,2.40
2022-09-23T15:13:14.924Z,1.85
2022-09-23T15:14:55.070Z,2.20
2022-09-23T15:16:30.540Z,2.03
2022-09-23T15:18:08.250Z,3.00
2022-09-23T15:19:40.957Z,2.88
2022-09-23T15:21:16.012Z,2.95
2022-09-23T15:22:50.822Z,2.33
2022-09-23T15:24:53.356Z,2.78
2022-09-23T15:26:37.725Z,2.08
2022-09-23T15:28:12.878Z,2.22
2022-09-23T15:29:45.232Z,2.92
2022-09-23T15:31:19.976Z,3.20
2022-09-23T15:32:52.313Z,3.83
2022-09-23T15:34:24.573Z,2.65
2022-09-23T15:35:57.770Z,2.35
2022-09-23T15:37:35.484Z,2.40
2022-09-23T15:39:11.288Z,2.80
2022-09-23T15:40:43.608Z,2.20
2022-09-23T15:42:16.801Z,2.20
2022-09-23T15:43:49.179Z,2.08
2022-09-23T15:45:44.439Z,2.03
2022-09-23T15:47:21.896Z,2.30
2022-09-23T15:49:01.357Z,2.72
2022-09-23T15:50:35.701Z,3.33
2022-09-23T15:52:10.708Z,5.47
2022-09-23T15:53:43.103Z,3.45
2022-09-23T15:55:22.257Z,3.20
2022-09-23T15:56:54.759Z,3.85
2022-09-23T15:58:28.165Z,2.63
2022-09-23T16:01:34.541Z,3.25
2022-09-23T16:03:07.068Z,2.72
2022-09-23T16:04:39.384Z,2.92
2022-09-23T16:06:13.873Z,3.53
2022-09-23T16:07:49.686Z,4.05
2022-09-23T16:09:22.257Z,3.03
2022-09-23T16:10:55.548Z,2.58
2022-09-23T16:12:28.264Z,2.63
2022-09-23T16:14:03.788Z,2.72
2022-09-23T16:15:36.291Z,2.65
2022-09-23T16:17:09.851Z,2.80
2022-09-23T16:18:44.171Z,2.70
2022-09-23T16:20:18.088Z,2.63
2022-09-23T16:21:50.491Z,2.67
2022-09-23T16:23:39.074Z,2.63
2022-09-23T16:25:13.005Z,2.90
2022-09-23T16:26:47.360Z,3.10
2022-09-23T16:28:20.568Z,3.03
2022-09-23T16:29:53.099Z,3.08
2022-09-23T16:31:27.585Z,2.90
2022-09-23T16:33:01.240Z,3.33
2022-09-23T16:34:35.259Z,3.45
2022-09-23T16:36:12.688Z,3.50
2022-09-23T16:37:47.440Z,3.75
2022-09-23T16:39:20.906Z,3.45
2022-09-23T16:40:53.970Z,3.67
2022-09-23T16:42:26.350Z,4.10
2022-09-23T16:44:01.019Z,4.47
2022-09-23T16:45:33.523Z,3.90
2022-09-23T16:47:06.147Z,3.55
2022-09-23T16:48:42.086Z,4.40
2022-09-23T16:50:16.034Z,4.38
2022-09-23T16:51:48.587Z,4.65
2022-09-23T16:53:21.025Z,5.25
2022-09-23T16:54:54.337Z,4.70
2022-09-23T16:56:29.224Z,4.70
2022-09-23T16:58:01.839Z,4.55
2022-09-23T16:59:54.111Z,4.32
2022-09-23T17:01:49.617Z,4.38
2022-09-23T17:03:40.319Z,4.40
2022-09-23T17:06:52.976Z,3.92
2022-09-23T17:08:25.377Z,3.80
2022-09-23T17:09:58.413Z,4.07
2022-09-23T17:11:33.967Z,3.60
2022-09-23T17:13:08.494Z,3.30
2022-09-23T17:14:40.955Z,3.65
2022-09-23T17:16:29.148Z,3.25
2022-09-23T17:18:01.919Z,3.20
2022-09-23T17:19:35.147Z,3.10
2022-09-23T17:21:08.765Z,2.85
2022-09-23T17:22:42.130Z,2.85
2022-09-23T17:25:50.036Z,3.03
2022-09-23T17:27:22.411Z,3.03
2022-09-23T17:28:56.187Z,3.00
2022-09-23T17:30:29.227Z,2.83
2022-09-23T17:32:01.680Z,2.67
2022-09-23T17:33:38.354Z,2.78
2022-09-23T17:35:11.756Z,2.83
2022-09-23T17:38:16.208Z,2.70
2022-09-23T17:39:49.113Z,2.75
2022-09-23T17:41:22.019Z,2.80
2022-09-23T17:42:54.269Z,3.50
2022-09-23T17:44:26.907Z,2.65
2022-09-23T17:46:08.116Z,2.60
2022-09-23T17:47:43.399Z,2.67
2022-09-23T17:49:16.084Z,2.97
2022-09-23T17:50:58.705Z,3.05
2022-09-23T17:52:31.108Z,3.55
2022-09-23T17:54:03.336Z,3.20
2022-09-23T17:55:35.634Z,3.30
2022-09-23T17:57:08.449Z,3.08
2022-09-23T17:58:40.711Z,3.67
2022-09-23T18:00:13.525Z,3.22
2022-09-23T18:01:45.979Z,3.30
2022-09-23T18:03:22.956Z,4.18
2022-09-23T18:04:55.448Z,3.80
2022-09-23T18:06:32.255Z,3.60
2022-09-23T18:08:06.092Z,3.40
2022-09-23T18:09:38.454Z,3.50
2022-09-23T18:11:15.471Z,3.83
2022-09-23T18:12:47.895Z,3.63
2022-09-23T18:14:22.559Z,3.88
2022-09-23T18:15:54.944Z,3.80
2022-09-23T18:17:27.370Z,3.55
2022-09-23T18:19:01.534Z,3.40
2022-09-23T18:20:38.136Z,4.00
2022-09-23T18:22:10.853Z,3.60
2022-09-23T18:23:46.919Z,3.60
2022-09-23T18:25:38.049Z,3.75
2022-09-23T18:27:11.333Z,3.75
2022-09-23T18:28:44.033Z,3.80
2022-09-23T18:30:17.515Z,3.38
2022-09-23T18:34:55.765Z,3.70
2022-09-23T18:36:29.496Z,3.33
2022-09-23T18:38:02.904Z,3.70
2022-09-23T18:41:07.684Z,3.53
2022-09-23T18:42:40.754Z,3.80
2022-09-23T18:44:13.039Z,4.10
2022-09-23T18:45:56.231Z,3.92
2022-09-23T18:47:47.574Z,3.47
2022-09-23T18:49:38.754Z,3.80
2022-09-23T18:51:14.878Z,3.42
2022-09-23T18:52:48.565Z,3.67
2022-09-23T18:54:22.940Z,3.80
2022-09-23T18:55:55.282Z,3.38
2022-09-23T18:57:27.376Z,3.38
2022-09-23T18:58:59.747Z,3.28
2022-09-23T19:00:32.049Z,3.92
2022-09-23T19:02:04.528Z,4.05
2022-09-23T19:03:37.385Z,3.92
2022-09-23T19:05:12.663Z,4.35
2022-09-23T19:06:45.068Z,4.30
2022-09-23T19:08:19.194Z,4.43
2022-09-23T19:09:51.307Z,4.82
2022-09-23T19:11:25.211Z,4.07
2022-09-23T19:12:57.320Z,4.40
2022-09-23T19:14:29.518Z,4.32
2022-09-23T19:16:15.469Z,4.20
2022-09-23T19:17:47.616Z,3.90
2022-09-23T19:19:21.134Z,4.18
2022-09-23T19:22:26.066Z,4.03
2022-09-23T19:24:03.936Z,4.10
2022-09-23T19:25:37.206Z,3.72
2022-09-23T19:27:09.927Z,4.05
2022-09-23T19:28:41.975Z,3.80
2022-09-23T19:30:14.475Z,4.20
2022-09-23T19:31:46.776Z,4.00
2022-09-23T19:33:18.841Z,3.72
2022-09-23T19:34:50.816Z,3.67
2022-09-23T19:36:32.899Z,3.80
2022-09-23T19:38:05.218Z,4.05
2022-09-23T19:39:38.013Z,3.63
2022-09-23T19:41:11.537Z,3.35
2022-09-23T19:44:16.895Z,3.75
2022-09-23T19:45:55.515Z,3.30
2022-09-23T19:47:27.847Z,3.55
2022-09-23T19:49:00.811Z,3.67
2022-09-23T19:50:35.039Z,3.40
2022-09-23T19:52:07.210Z,3.40
2022-09-23T19:53:39.272Z,3.45
2022-09-23T19:55:11.245Z,3.38
2022-09-23T19:56:43.638Z,3.03
2022-09-23T19:58:18.943Z,3.50
2022-09-23T19:59:51.074Z,3.15
2022-09-23T20:01:24.154Z,3.53
2022-09-23T20:02:57.278Z,3.38
2022-09-23T20:04:29.602Z,3.20
2022-09-23T20:06:02.076Z,2.92
2022-09-23T20:09:07.353Z,3.33
2022-09-23T20:10:40.331Z,3.22
2022-09-23T20:12:13.382Z,3.22
2022-09-23T20:13:50.452Z,3.60
2022-09-23T20:15:23.598Z,3.65
2022-09-23T20:16:55.713Z,3.30
2022-09-23T20:18:27.809Z,3.20
2022-09-23T20:20:00.538Z,3.17
2022-09-23T20:21:33.910Z,3.53
2022-09-23T20:24:39.013Z,3.60
2022-09-23T20:26:30.107Z,3.75
2022-09-23T20:28:02.678Z,3.78
2022-09-23T20:29:34.818Z,3.80
2022-09-23T20:31:06.945Z,3.60
2022-09-23T20:32:43.951Z,3.25
2022-09-23T20:34:16.734Z,3.25
2022-09-23T20:35:51.514Z,3.28
2022-09-23T20:37:24.787Z,3.30
2022-09-23T20:38:59.987Z,3.60
2022-09-23T20:40:34.842Z,3.35
2022-09-23T20:42:09.691Z,3.25
2022-09-23T20:43:41.965Z,3.33
2022-09-23T20:45:13.953Z,3.40
2022-09-23T20:46:48.800Z,3.45
2022-09-23T20:48:21.903Z,3.90
2022-09-23T20:49:54.321Z,3.25
2022-09-23T20:51:26.589Z,4.10
2022-09-23T20:52:58.591Z,4.15
2022-09-23T20:54:33.422Z,3.42
2022-09-23T20:56:06.292Z,3.50
2022-09-23T20:57:38.267Z,4.03
2022-09-23T20:59:11.109Z,3.70
2022-09-23T21:00:44.822Z,4.78
2022-09-23T21:02:16.943Z,7.30
2022-09-23T21:03:50.460Z,7.35
2022-09-23T21:06:57.885Z,5.00
2022-09-23T21:08:31.525Z,5.15
2022-09-23T21:10:07.106Z,5.75
2022-09-23T21:11:39.150Z,5.78
2022-09-23T21:13:11.143Z,5.28
2022-09-23T21:14:43.128Z,5.10
2022-09-23T21:16:16.345Z,4.50
2022-09-23T21:17:48.556Z,4.65
2022-09-23T21:19:20.994Z,4.15
2022-09-23T21:21:00.093Z,4.38
2022-09-23T21:22:32.736Z,4.25
2022-09-23T21:24:36.008Z,3.80
2022-09-23T21:26:04.592Z,4.07
2022-09-23T21:27:37.551Z,3.72
2022-09-23T21:29:16.959Z,4.43
2022-09-23T21:30:51.952Z,4.63
2022-09-23T21:32:24.379Z,4.57
2022-09-23T21:34:03.464Z,3.80
2022-09-23T21:35:42.828Z,3.75
2022-09-23T21:37:14.996Z,3.30
2022-09-23T21:38:47.086Z,3.40
2022-09-23T21:40:37.797Z,3.58
2022-09-23T21:42:11.507Z,3.20
2022-09-23T21:43:43.689Z,3.50
2022-09-23T21:45:15.714Z,3.40
2022-09-23T21:46:47.769Z,3.88
2022-09-23T21:48:19.763Z,3.30
2022-09-23T21:49:52.147Z,3.65
2022-09-23T21:51:26.544Z,3.50
2022-09-23T21:52:58.738Z,3.10
2022-09-23T21:54:32.323Z,3.45
2022-09-23T21:56:06.521Z,3.45
2022-09-23T21:57:38.654Z,3.30
2022-09-23T21:59:11.026Z,3.42
2022-09-23T22:00:44.290Z,3.20
2022-09-23T22:03:56.214Z,4.15
2022-09-23T22:05:28.414Z,3.10
2022-09-23T22:07:00.919Z,3.60
2022-09-23T22:08:37.154Z,3.10
2022-09-23T22:10:09.529Z,3.47
2022-09-23T22:12:01.143Z,3.10
2022-09-23T22:13:33.197Z,3.33
2022-09-23T22:15:07.285Z,3.22
2022-09-23T22:16:40.218Z,3.50
2022-09-23T22:18:12.386Z,3.53
2022-09-23T22:19:47.138Z,3.17
2022-09-23T22:21:22.049Z,3.47
2022-09-23T22:22:54.209Z,3.20
2022-09-23T22:24:26.300Z,3.72
2022-09-23T22:26:02.924Z,3.35
2022-09-23T22:27:55.306Z,3.40
2022-09-23T22:29:45.944Z,3.63
2022-09-23T22:31:36.316Z,3.53
2022-09-23T22:33:09.358Z,3.40
2022-09-23T22:34:50.961Z,3.35
2022-09-23T22:36:23.887Z,3.50
2022-09-23T22:37:56.188Z,3.38
2022-09-23T22:39:29.817Z,3.30
2022-09-23T22:41:02.127Z,3.60
2022-09-23T22:42:34.948Z,3.05
2022-09-23T22:44:07.107Z,3.30
2022-09-23T22:45:39.943Z,3.20
2022-09-23T22:47:11.929Z,3.67
2022-09-23T22:48:44.550Z,3.42
2022-09-23T22:50:16.630Z,3.70
2022-09-23T22:51:48.637Z,3.10
2022-09-23T22:53:20.672Z,3.03
2022-09-23T22:54:53.151Z,3.35
2022-09-23T22:56:25.140Z,3.47
2022-09-23T22:57:57.273Z,2.97
2022-09-23T22:59:29.306Z,3.13
2022-09-23T23:01:02.846Z,2.75
2022-09-23T23:04:08.532Z,2.92
2022-09-23T23:05:40.893Z,3.10
2022-09-23T23:07:15.001Z,3.08
2022-09-23T23:08:47.352Z,2.65
2022-09-23T23:11:58.741Z,2.92
2022-09-23T23:13:34.589Z,2.67
2022-09-23T23:15:07.316Z,2.97
2022-09-23T23:16:39.654Z,3.00
2022-09-23T23:18:12.556Z,2.92
2022-09-23T23:19:44.606Z,3.17
2022-09-23T23:21:18.863Z,2.83
2022-09-23T23:22:50.941Z,2.95
2022-09-23T23:24:24.528Z,3.13
2022-09-23T23:25:56.524Z,3.42
2022-09-23T23:27:28.462Z,3.03
2022-09-23T23:29:02.129Z,2.95
2022-09-23T23:30:35.296Z,3.10
2022-09-23T23:32:08.009Z,2.95
2022-09-23T23:33:40.576Z,2.80
2022-09-23T23:35:12.685Z,3.25
2022-09-23T23:36:46.038Z,2.80
2022-09-23T23:38:18.050Z,3.25
2022-09-23T23:39:50.103Z,3.00
2022-09-23T23:41:23.131Z,3.08